sensor_id;sensor_type;location;lat;lon;timestamp;temperature;humidity
41985;DHT22;28319;48.116;10.818;2022-08-20T00:01:36;17.00;99.90
41985;DHT22;28319;48.116;10.818;2022-08-20T00:04:03;17.00;99.90
41985;DHT22;28319;48.116;10.818;2022-08-20T00:06:32;17.00;99.90
41985;DHT22;28319;48.116;10.818;2022-08-20T00:08:59;17.00;99.90
41985;DHT22;28319;48.116;10.818;2022-08-20T00:11:26;17.00;99.90
41985;DHT22;28319;48.116;10.818;2022-08-20T00:13:57;17.10;99.90
41985;DHT22;28319;48.116;10.818;2022-08-20T00:16:27;17.10;99.90
41985;DHT22;28319;48.116;10.818;2022-08-20T00:18:57;17.10;99.90
41985;DHT22;28319;48.116;10.818;2022-08-20T00:21:24;17.10;99.90
41985;DHT22;28319;48.116;10.818;2022-08-20T00:23:55;17.10;99.90
41985;DHT22;28319;48.116;10.818;2022-08-20T00:26:23;17.10;99.90
41985;DHT22;28319;48.116;10.818;2022-08-20T00:28:50;17.10;99.90
41985;DHT22;28319;48.116;10.818;2022-08-20T00:31:19;17.10;99.90
41985;DHT22;28319;48.116;10.818;2022-08-20T00:33:47;17.10;99.90
41985;DHT22;28319;48.116;10.818;2022-08-20T00:36:15;17.20;99.90
41985;DHT22;28319;48.116;10.818;2022-08-20T00:38:44;17.10;99.90
41985;DHT22;28319;48.116;10.818;2022-08-20T00:41:17;17.10;99.90
41985;DHT22;28319;48.116;10.818;2022-08-20T00:43:46;17.10;99.90
41985;DHT22;28319;48.116;10.818;2022-08-20T00:46:15;17.10;99.90
41985;DHT22;28319;48.116;10.818;2022-08-20T00:48:46;17.10;99.90
41985;DHT22;28319;48.116;10.818;2022-08-20T00:51:21;17.10;99.90
41985;DHT22;28319;48.116;10.818;2022-08-20T00:53:53;17.10;99.90
41985;DHT22;28319;48.116;10.818;2022-08-20T00:56:22;17.10;99.90
41985;DHT22;28319;48.116;10.818;2022-08-20T00:58:51;17.10;99.90
41985;DHT22;28319;48.116;10.818;2022-08-20T01:01:20;17.10;99.90
41985;DHT22;28319;48.116;10.818;2022-08-20T01:03:48;17.10;99.90
41985;DHT22;28319;48.116;10.818;2022-08-20T01:06:19;17.10;99.90
41985;DHT22;28319;48.116;10.818;2022-08-20T01:08:46;17.10;99.90
41985;DHT22;28319;48.116;10.818;2022-08-20T01:11:13;17.10;99.90
41985;DHT22;28319;48.116;10.818;2022-08-20T01:13:44;17.10;99.90
41985;DHT22;28319;48.116;10.818;2022-08-20T01:16:17;17.10;99.90
41985;DHT22;28319;48.116;10.818;2022-08-20T01:18:45;17.10;99.90
41985;DHT22;28319;48.116;10.818;2022-08-20T01:21:13;17.10;99.90
41985;DHT22;28319;48.116;10.818;2022-08-20T01:23:50;17.10;99.90
41985;DHT22;28319;48.116;10.818;2022-08-20T01:26:22;17.10;99.90
41985;DHT22;28319;48.116;10.818;2022-08-20T01:28:54;17.10;99.90
41985;DHT22;28319;48.116;10.818;2022-08-20T01:31:25;17.10;99.90
41985;DHT22;28319;48.116;10.818;2022-08-20T01:33:54;17.00;99.90
41985;DHT22;28319;48.116;10.818;2022-08-20T01:36:25;17.00;99.90
41985;DHT22;28319;48.116;10.818;2022-08-20T01:38:55;17.00;99.90
41985;DHT22;28319;48.116;10.818;2022-08-20T01:41:29;17.00;99.90
41985;DHT22;28319;48.116;10.818;2022-08-20T01:44:00;17.00;99.90
41985;DHT22;28319;48.116;10.818;2022-08-20T01:46:30;17.00;99.90
41985;DHT22;28319;48.116;10.818;2022-08-20T01:48:59;17.00;99.90
41985;DHT22;28319;48.116;10.818;2022-08-20T01:51:32;17.00;99.90
41985;DHT22;28319;48.116;10.818;2022-08-20T01:53:59;17.00;99.90
41985;DHT22;28319;48.116;10.818;2022-08-20T01:56:29;17.00;99.90
41985;DHT22;28319;48.116;10.818;2022-08-20T01:59:03;17.00;99.90
41985;DHT22;28319;48.116;10.818;2022-08-20T02:01:36;17.00;99.90
41985;DHT22;28319;48.116;10.818;2022-08-20T02:04:05;17.00;99.90
41985;DHT22;28319;48.116;10.818;2022-08-20T02:06:36;17.00;99.90
41985;DHT22;28319;48.116;10.818;2022-08-20T02:09:04;17.10;99.90
41985;DHT22;28319;48.116;10.818;2022-08-20T02:11:33;17.00;99.90
41985;DHT22;28319;48.116;10.818;2022-08-20T02:14:02;17.10;99.90
41985;DHT22;28319;48.116;10.818;2022-08-20T02:16:33;17.00;99.90
41985;DHT22;28319;48.116;10.818;2022-08-20T02:19:05;17.10;99.90
41985;DHT22;28319;48.116;10.818;2022-08-20T02:21:38;17.00;99.90
41985;DHT22;28319;48.116;10.818;2022-08-20T02:24:05;17.00;99.90
41985;DHT22;28319;48.116;10.818;2022-08-20T02:26:34;17.00;99.90
41985;DHT22;28319;48.116;10.818;2022-08-20T02:29:03;17.00;99.90
41985;DHT22;28319;48.116;10.818;2022-08-20T02:31:31;17.00;99.90
41985;DHT22;28319;48.116;10.818;2022-08-20T02:33:58;17.00;99.90
41985;DHT22;28319;48.116;10.818;2022-08-20T02:36:32;17.00;99.90
41985;DHT22;28319;48.116;10.818;2022-08-20T02:39:03;17.00;99.90
41985;DHT22;28319;48.116;10.818;2022-08-20T02:41:31;17.00;99.90
41985;DHT22;28319;48.116;10.818;2022-08-20T02:43:59;17.00;99.90
41985;DHT22;28319;48.116;10.818;2022-08-20T02:46:26;17.00;99.90
41985;DHT22;28319;48.116;10.818;2022-08-20T02:48:53;17.00;99.90
41985;DHT22;28319;48.116;10.818;2022-08-20T02:51:20;17.00;99.90
41985;DHT22;28319;48.116;10.818;2022-08-20T02:53:47;17.00;99.90
41985;DHT22;28319;48.116;10.818;2022-08-20T02:56:14;17.00;99.90
41985;DHT22;28319;48.116;10.818;2022-08-20T02:58:41;16.90;99.90
41985;DHT22;28319;48.116;10.818;2022-08-20T03:01:12;16.90;99.90
41985;DHT22;28319;48.116;10.818;2022-08-20T03:03:41;16.90;99.90
41985;DHT22;28319;48.116;10.818;2022-08-20T03:06:09;17.00;99.90
41985;DHT22;28319;48.116;10.818;2022-08-20T03:08:37;17.00;99.90
41985;DHT22;28319;48.116;10.818;2022-08-20T03:11:05;17.10;99.90
41985;DHT22;28319;48.116;10.818;2022-08-20T03:13:32;17.00;99.90
41985;DHT22;28319;48.116;10.818;2022-08-20T03:16:00;17.00;99.90
41985;DHT22;28319;48.116;10.818;2022-08-20T03:18:32;17.00;99.90
41985;DHT22;28319;48.116;10.818;2022-08-20T03:20:59;17.00;99.90
41985;DHT22;28319;48.116;10.818;2022-08-20T03:23:26;17.00;99.90
41985;DHT22;28319;48.116;10.818;2022-08-20T03:25:53;17.00;99.90
41985;DHT22;28319;48.116;10.818;2022-08-20T03:28:20;17.00;99.90
41985;DHT22;28319;48.116;10.818;2022-08-20T03:30:47;17.00;99.90
41985;DHT22;28319;48.116;10.818;2022-08-20T03:33:15;17.00;99.90
41985;DHT22;28319;48.116;10.818;2022-08-20T03:35:43;17.00;99.90
41985;DHT22;28319;48.116;10.818;2022-08-20T03:38:12;17.00;99.90
41985;DHT22;28319;48.116;10.818;2022-08-20T03:40:39;17.00;99.90
41985;DHT22;28319;48.116;10.818;2022-08-20T03:43:07;17.00;99.90
41985;DHT22;28319;48.116;10.818;2022-08-20T03:45:36;17.00;99.90
41985;DHT22;28319;48.116;10.818;2022-08-20T03:48:05;16.90;99.90
41985;DHT22;28319;48.116;10.818;2022-08-20T03:50:33;16.90;99.90
41985;DHT22;28319;48.116;10.818;2022-08-20T03:53:03;17.00;99.90
41985;DHT22;28319;48.116;10.818;2022-08-20T03:55:30;17.00;99.90
41985;DHT22;28319;48.116;10.818;2022-08-20T03:57:59;16.90;99.90
41985;DHT22;28319;48.116;10.818;2022-08-20T04:00:29;16.90;99.90
41985;DHT22;28319;48.116;10.818;2022-08-20T04:02:56;17.00;99.90
41985;DHT22;28319;48.116;10.818;2022-08-20T04:05:26;17.00;99.90
41985;DHT22;28319;48.116;10.818;2022-08-20T04:07:53;17.00;99.90
41985;DHT22;28319;48.116;10.818;2022-08-20T04:10:22;17.00;99.90
41985;DHT22;28319;48.116;10.818;2022-08-20T04:12:49;17.10;99.90
41985;DHT22;28319;48.116;10.818;2022-08-20T04:15:17;17.10;99.90
41985;DHT22;28319;48.116;10.818;2022-08-20T04:17:46;17.10;99.90
41985;DHT22;28319;48.116;10.818;2022-08-20T04:20:17;17.10;99.90
41985;DHT22;28319;48.116;10.818;2022-08-20T04:22:47;17.10;99.90
41985;DHT22;28319;48.116;10.818;2022-08-20T04:25:14;17.10;99.90
41985;DHT22;28319;48.116;10.818;2022-08-20T04:27:43;17.00;99.90
41985;DHT22;28319;48.116;10.818;2022-08-20T04:30:12;17.10;99.90
41985;DHT22;28319;48.116;10.818;2022-08-20T04:32:40;17.00;99.90
41985;DHT22;28319;48.116;10.818;2022-08-20T04:35:10;17.10;99.90
41985;DHT22;28319;48.116;10.818;2022-08-20T04:37:39;17.00;99.90
41985;DHT22;28319;48.116;10.818;2022-08-20T04:40:09;17.00;99.90
41985;DHT22;28319;48.116;10.818;2022-08-20T04:42:55;17.00;99.90
41985;DHT22;28319;48.116;10.818;2022-08-20T04:45:23;17.00;99.90
41985;DHT22;28319;48.116;10.818;2022-08-20T04:47:51;17.00;99.90
41985;DHT22;28319;48.116;10.818;2022-08-20T04:50:19;17.00;99.90
41985;DHT22;28319;48.116;10.818;2022-08-20T04:52:46;17.00;99.90
41985;DHT22;28319;48.116;10.818;2022-08-20T04:55:14;16.90;99.90
41985;DHT22;28319;48.116;10.818;2022-08-20T04:57:42;16.90;99.90
41985;DHT22;28319;48.116;10.818;2022-08-20T05:00:15;17.00;99.90
41985;DHT22;28319;48.116;10.818;2022-08-20T05:02:42;17.00;99.90
41985;DHT22;28319;48.116;10.818;2022-08-20T05:05:10;17.00;99.90
41985;DHT22;28319;48.116;10.818;2022-08-20T05:07:43;17.00;99.90
41985;DHT22;28319;48.116;10.818;2022-08-20T05:10:14;17.40;99.90
41985;DHT22;28319;48.116;10.818;2022-08-20T05:12:48;17.10;99.90
41985;DHT22;28319;48.116;10.818;2022-08-20T05:15:17;17.00;99.90
41985;DHT22;28319;48.116;10.818;2022-08-20T05:17:45;17.10;99.90
41985;DHT22;28319;48.116;10.818;2022-08-20T05:22:44;17.00;99.90
41985;DHT22;28319;48.116;10.818;2022-08-20T05:25:11;17.00;99.90
41985;DHT22;28319;48.116;10.818;2022-08-20T05:27:38;17.00;99.90
41985;DHT22;28319;48.116;10.818;2022-08-20T05:30:09;17.00;99.90
41985;DHT22;28319;48.116;10.818;2022-08-20T05:32:38;17.00;99.90
41985;DHT22;28319;48.116;10.818;2022-08-20T05:35:08;17.10;99.90
41985;DHT22;28319;48.116;10.818;2022-08-20T05:37:36;17.10;99.90
41985;DHT22;28319;48.116;10.818;2022-08-20T05:40:08;17.00;99.90
41985;DHT22;28319;48.116;10.818;2022-08-20T05:42:36;17.00;99.90
41985;DHT22;28319;48.116;10.818;2022-08-20T05:45:05;17.00;99.90
41985;DHT22;28319;48.116;10.818;2022-08-20T05:47:33;17.00;99.90
41985;DHT22;28319;48.116;10.818;2022-08-20T05:50:06;17.10;99.90
41985;DHT22;28319;48.116;10.818;2022-08-20T05:52:34;17.10;99.90
41985;DHT22;28319;48.116;10.818;2022-08-20T05:55:02;17.10;99.90
41985;DHT22;28319;48.116;10.818;2022-08-20T05:57:29;17.10;99.90
41985;DHT22;28319;48.116;10.818;2022-08-20T05:59:58;17.10;99.90
41985;DHT22;28319;48.116;10.818;2022-08-20T06:02:26;17.10;99.90
41985;DHT22;28319;48.116;10.818;2022-08-20T06:05:12;17.10;99.90
41985;DHT22;28319;48.116;10.818;2022-08-20T06:07:39;17.10;99.90
41985;DHT22;28319;48.116;10.818;2022-08-20T06:10:07;17.10;99.90
41985;DHT22;28319;48.116;10.818;2022-08-20T06:12:34;17.10;99.90
41985;DHT22;28319;48.116;10.818;2022-08-20T06:15:02;17.10;99.90
41985;DHT22;28319;48.116;10.818;2022-08-20T06:17:29;17.10;99.90
41985;DHT22;28319;48.116;10.818;2022-08-20T06:20:01;17.20;99.90
41985;DHT22;28319;48.116;10.818;2022-08-20T06:22:30;17.20;99.90
41985;DHT22;28319;48.116;10.818;2022-08-20T06:24:57;17.20;99.90
41985;DHT22;28319;48.116;10.818;2022-08-20T06:27:24;17.20;99.90
41985;DHT22;28319;48.116;10.818;2022-08-20T06:29:52;17.30;99.90
41985;DHT22;28319;48.116;10.818;2022-08-20T06:32:19;17.30;99.90
41985;DHT22;28319;48.116;10.818;2022-08-20T06:34:49;17.30;99.90
41985;DHT22;28319;48.116;10.818;2022-08-20T06:37:19;17.30;99.90
41985;DHT22;28319;48.116;10.818;2022-08-20T06:39:48;17.30;99.90
41985;DHT22;28319;48.116;10.818;2022-08-20T06:42:15;17.40;99.90
41985;DHT22;28319;48.116;10.818;2022-08-20T06:44:42;17.40;99.90
41985;DHT22;28319;48.116;10.818;2022-08-20T06:47:12;17.40;99.90
41985;DHT22;28319;48.116;10.818;2022-08-20T06:49:40;17.40;99.90
41985;DHT22;28319;48.116;10.818;2022-08-20T06:52:07;17.40;99.90
41985;DHT22;28319;48.116;10.818;2022-08-20T06:54:34;17.50;99.90
41985;DHT22;28319;48.116;10.818;2022-08-20T06:57:02;17.50;99.90
41985;DHT22;28319;48.116;10.818;2022-08-20T06:59:29;17.60;99.90
41985;DHT22;28319;48.116;10.818;2022-08-20T07:01:57;17.60;99.90
41985;DHT22;28319;48.116;10.818;2022-08-20T07:04:25;17.60;99.90
41985;DHT22;28319;48.116;10.818;2022-08-20T07:06:52;17.70;99.90
41985;DHT22;28319;48.116;10.818;2022-08-20T07:09:20;17.80;99.90
41985;DHT22;28319;48.116;10.818;2022-08-20T07:11:47;17.80;99.90
41985;DHT22;28319;48.116;10.818;2022-08-20T07:14:16;17.80;99.90
41985;DHT22;28319;48.116;10.818;2022-08-20T07:16:43;17.80;99.90
41985;DHT22;28319;48.116;10.818;2022-08-20T07:19:12;17.90;99.90
41985;DHT22;28319;48.116;10.818;2022-08-20T07:21:39;17.90;99.90
41985;DHT22;28319;48.116;10.818;2022-08-20T07:24:06;17.90;99.90
41985;DHT22;28319;48.116;10.818;2022-08-20T07:26:34;18.00;99.90
41985;DHT22;28319;48.116;10.818;2022-08-20T07:29:01;18.00;99.90
41985;DHT22;28319;48.116;10.818;2022-08-20T07:31:29;18.00;99.90
41985;DHT22;28319;48.116;10.818;2022-08-20T07:34:13;18.00;99.90
41985;DHT22;28319;48.116;10.818;2022-08-20T07:36:40;18.10;99.90
41985;DHT22;28319;48.116;10.818;2022-08-20T07:39:08;18.10;99.90
41985;DHT22;28319;48.116;10.818;2022-08-20T07:41:35;18.20;99.90
41985;DHT22;28319;48.116;10.818;2022-08-20T07:44:02;18.20;99.90
41985;DHT22;28319;48.116;10.818;2022-08-20T07:46:31;18.30;99.90
41985;DHT22;28319;48.116;10.818;2022-08-20T07:48:58;18.30;99.90
41985;DHT22;28319;48.116;10.818;2022-08-20T07:51:25;18.30;99.90
41985;DHT22;28319;48.116;10.818;2022-08-20T07:53:53;18.30;99.90
41985;DHT22;28319;48.116;10.818;2022-08-20T07:56:23;18.30;99.90
41985;DHT22;28319;48.116;10.818;2022-08-20T07:58:52;18.30;99.90
41985;DHT22;28319;48.116;10.818;2022-08-20T08:01:22;18.30;99.90
41985;DHT22;28319;48.116;10.818;2022-08-20T08:03:51;18.30;99.90
41985;DHT22;28319;48.116;10.818;2022-08-20T08:06:20;18.40;99.90
41985;DHT22;28319;48.116;10.818;2022-08-20T08:08:47;18.30;99.90
41985;DHT22;28319;48.116;10.818;2022-08-20T08:11:14;18.30;99.90
41985;DHT22;28319;48.116;10.818;2022-08-20T08:13:44;18.40;99.90
41985;DHT22;28319;48.116;10.818;2022-08-20T08:16:12;18.50;99.90
41985;DHT22;28319;48.116;10.818;2022-08-20T08:18:42;18.50;99.90
41985;DHT22;28319;48.116;10.818;2022-08-20T08:21:11;18.50;99.90
41985;DHT22;28319;48.116;10.818;2022-08-20T08:23:38;18.60;99.90
41985;DHT22;28319;48.116;10.818;2022-08-20T08:26:09;18.60;99.90
41985;DHT22;28319;48.116;10.818;2022-08-20T08:28:36;18.70;99.90
41985;DHT22;28319;48.116;10.818;2022-08-20T08:31:04;18.80;99.90
41985;DHT22;28319;48.116;10.818;2022-08-20T08:33:31;18.70;99.90
41985;DHT22;28319;48.116;10.818;2022-08-20T08:35:59;18.70;99.90
41985;DHT22;28319;48.116;10.818;2022-08-20T08:38:29;18.70;99.90
41985;DHT22;28319;48.116;10.818;2022-08-20T08:41:05;18.90;99.90
41985;DHT22;28319;48.116;10.818;2022-08-20T08:43:33;18.90;99.90
41985;DHT22;28319;48.116;10.818;2022-08-20T08:46:03;19.00;99.90
41985;DHT22;28319;48.116;10.818;2022-08-20T08:48:34;19.10;99.90
41985;DHT22;28319;48.116;10.818;2022-08-20T08:51:03;19.10;99.90
41985;DHT22;28319;48.116;10.818;2022-08-20T08:53:41;19.20;99.90
41985;DHT22;28319;48.116;10.818;2022-08-20T08:56:11;19.30;99.90
41985;DHT22;28319;48.116;10.818;2022-08-20T08:58:39;19.40;99.90
41985;DHT22;28319;48.116;10.818;2022-08-20T09:01:11;19.40;99.90
41985;DHT22;28319;48.116;10.818;2022-08-20T09:03:40;19.50;99.90
41985;DHT22;28319;48.116;10.818;2022-08-20T09:06:12;19.60;99.90
41985;DHT22;28319;48.116;10.818;2022-08-20T09:08:45;19.60;99.90
41985;DHT22;28319;48.116;10.818;2022-08-20T09:11:13;19.60;99.90
41985;DHT22;28319;48.116;10.818;2022-08-20T09:13:40;19.60;99.90
41985;DHT22;28319;48.116;10.818;2022-08-20T09:16:09;19.60;99.90
41985;DHT22;28319;48.116;10.818;2022-08-20T09:18:36;19.60;99.90
41985;DHT22;28319;48.116;10.818;2022-08-20T09:21:03;19.60;99.90
41985;DHT22;28319;48.116;10.818;2022-08-20T09:23:31;19.60;99.90
41985;DHT22;28319;48.116;10.818;2022-08-20T09:25:59;19.70;99.90
41985;DHT22;28319;48.116;10.818;2022-08-20T09:28:26;19.70;99.90
41985;DHT22;28319;48.116;10.818;2022-08-20T09:30:53;19.80;99.90
41985;DHT22;28319;48.116;10.818;2022-08-20T09:33:20;19.80;99.90
41985;DHT22;28319;48.116;10.818;2022-08-20T09:35:47;19.70;99.90
41985;DHT22;28319;48.116;10.818;2022-08-20T09:38:14;19.70;99.90
41985;DHT22;28319;48.116;10.818;2022-08-20T09:40:42;19.80;99.90
41985;DHT22;28319;48.116;10.818;2022-08-20T09:43:11;19.80;99.90
41985;DHT22;28319;48.116;10.818;2022-08-20T09:45:38;19.90;99.90
41985;DHT22;28319;48.116;10.818;2022-08-20T09:48:05;19.90;99.90
41985;DHT22;28319;48.116;10.818;2022-08-20T09:50:34;19.90;99.90
41985;DHT22;28319;48.116;10.818;2022-08-20T09:53:03;19.90;99.90
41985;DHT22;28319;48.116;10.818;2022-08-20T09:55:33;19.90;99.90
41985;DHT22;28319;48.116;10.818;2022-08-20T09:58:01;20.00;99.90
41985;DHT22;28319;48.116;10.818;2022-08-20T10:00:31;20.00;99.90
41985;DHT22;28319;48.116;10.818;2022-08-20T10:02:58;20.00;99.90
41985;DHT22;28319;48.116;10.818;2022-08-20T10:05:26;20.00;99.90
41985;DHT22;28319;48.116;10.818;2022-08-20T10:07:53;20.10;99.90
41985;DHT22;28319;48.116;10.818;2022-08-20T10:10:20;20.10;99.90
41985;DHT22;28319;48.116;10.818;2022-08-20T10:12:47;20.20;99.90
41985;DHT22;28319;48.116;10.818;2022-08-20T10:15:14;20.20;99.90
41985;DHT22;28319;48.116;10.818;2022-08-20T10:17:42;21.00;99.90
41985;DHT22;28319;48.116;10.818;2022-08-20T10:20:11;20.80;99.90
41985;DHT22;28319;48.116;10.818;2022-08-20T10:22:39;20.90;99.90
41985;DHT22;28319;48.116;10.818;2022-08-20T10:25:07;21.10;99.90
41985;DHT22;28319;48.116;10.818;2022-08-20T10:27:34;21.30;99.90
41985;DHT22;28319;48.116;10.818;2022-08-20T10:30:01;21.60;99.90
41985;DHT22;28319;48.116;10.818;2022-08-20T10:32:28;21.80;99.90
41985;DHT22;28319;48.116;10.818;2022-08-20T10:34:56;22.00;99.90
41985;DHT22;28319;48.116;10.818;2022-08-20T10:37:24;22.10;99.90
41985;DHT22;28319;48.116;10.818;2022-08-20T10:39:52;22.20;99.90
41985;DHT22;28319;48.116;10.818;2022-08-20T10:42:19;22.40;99.90
41985;DHT22;28319;48.116;10.818;2022-08-20T10:44:47;22.30;99.90
41985;DHT22;28319;48.116;10.818;2022-08-20T10:47:19;22.10;99.90
41985;DHT22;28319;48.116;10.818;2022-08-20T10:49:47;21.70;99.90
41985;DHT22;28319;48.116;10.818;2022-08-20T10:52:16;21.50;99.90
41985;DHT22;28319;48.116;10.818;2022-08-20T10:54:43;21.40;99.90
41985;DHT22;28319;48.116;10.818;2022-08-20T10:57:13;21.30;99.90
41985;DHT22;28319;48.116;10.818;2022-08-20T10:59:41;21.30;99.90
41985;DHT22;28319;48.116;10.818;2022-08-20T11:02:09;21.30;99.90
41985;DHT22;28319;48.116;10.818;2022-08-20T11:04:36;21.30;99.90
41985;DHT22;28319;48.116;10.818;2022-08-20T11:07:13;21.30;99.90
41985;DHT22;28319;48.116;10.818;2022-08-20T11:09:43;21.30;99.90
41985;DHT22;28319;48.116;10.818;2022-08-20T11:12:11;21.30;99.90
41985;DHT22;28319;48.116;10.818;2022-08-20T11:14:38;21.40;99.90
41985;DHT22;28319;48.116;10.818;2022-08-20T11:17:05;21.40;99.90
41985;DHT22;28319;48.116;10.818;2022-08-20T11:19:37;21.50;99.90
41985;DHT22;28319;48.116;10.818;2022-08-20T11:22:04;21.70;99.90
41985;DHT22;28319;48.116;10.818;2022-08-20T11:24:31;21.70;99.90
41985;DHT22;28319;48.116;10.818;2022-08-20T11:26:59;21.60;99.90
41985;DHT22;28319;48.116;10.818;2022-08-20T11:29:26;21.50;99.90
41985;DHT22;28319;48.116;10.818;2022-08-20T11:31:53;21.60;99.90
41985;DHT22;28319;48.116;10.818;2022-08-20T11:34:20;21.50;99.90
41985;DHT22;28319;48.116;10.818;2022-08-20T11:36:47;21.70;99.90
41985;DHT22;28319;48.116;10.818;2022-08-20T11:39:15;22.00;99.90
41985;DHT22;28319;48.116;10.818;2022-08-20T11:41:42;22.30;99.90
41985;DHT22;28319;48.116;10.818;2022-08-20T11:44:10;22.50;99.90
41985;DHT22;28319;48.116;10.818;2022-08-20T11:46:37;22.50;99.90
41985;DHT22;28319;48.116;10.818;2022-08-20T11:49:04;22.50;99.90
41985;DHT22;28319;48.116;10.818;2022-08-20T11:51:31;22.30;99.90
41985;DHT22;28319;48.116;10.818;2022-08-20T11:53:58;22.20;99.90
41985;DHT22;28319;48.116;10.818;2022-08-20T11:56:25;21.90;99.90
41985;DHT22;28319;48.116;10.818;2022-08-20T11:58:52;21.60;99.90
41985;DHT22;28319;48.116;10.818;2022-08-20T12:01:21;21.40;99.90
41985;DHT22;28319;48.116;10.818;2022-08-20T12:03:48;21.40;99.90
41985;DHT22;28319;48.116;10.818;2022-08-20T12:06:15;21.50;99.90
41985;DHT22;28319;48.116;10.818;2022-08-20T12:08:42;21.50;99.90
41985;DHT22;28319;48.116;10.818;2022-08-20T12:11:09;21.40;99.90
41985;DHT22;28319;48.116;10.818;2022-08-20T12:13:36;21.50;99.90
41985;DHT22;28319;48.116;10.818;2022-08-20T12:16:04;21.60;99.90
41985;DHT22;28319;48.116;10.818;2022-08-20T12:18:33;21.80;99.90
41985;DHT22;28319;48.116;10.818;2022-08-20T12:21:00;22.00;99.90
41985;DHT22;28319;48.116;10.818;2022-08-20T12:23:27;21.90;99.90
41985;DHT22;28319;48.116;10.818;2022-08-20T12:25:54;21.70;99.90
41985;DHT22;28319;48.116;10.818;2022-08-20T12:28:21;21.70;99.90
41985;DHT22;28319;48.116;10.818;2022-08-20T12:30:48;21.70;99.90
41985;DHT22;28319;48.116;10.818;2022-08-20T12:33:15;21.60;99.90
41985;DHT22;28319;48.116;10.818;2022-08-20T12:35:43;21.70;99.90
41985;DHT22;28319;48.116;10.818;2022-08-20T12:38:10;21.70;99.90
41985;DHT22;28319;48.116;10.818;2022-08-20T12:40:38;21.80;99.90
41985;DHT22;28319;48.116;10.818;2022-08-20T12:43:05;22.00;99.90
41985;DHT22;28319;48.116;10.818;2022-08-20T12:45:34;22.00;99.90
41985;DHT22;28319;48.116;10.818;2022-08-20T12:48:03;22.10;99.90
41985;DHT22;28319;48.116;10.818;2022-08-20T12:50:31;22.30;99.90
41985;DHT22;28319;48.116;10.818;2022-08-20T12:53:00;22.20;99.90
41985;DHT22;28319;48.116;10.818;2022-08-20T12:55:28;22.30;99.90
41985;DHT22;28319;48.116;10.818;2022-08-20T12:57:58;22.30;99.90
41985;DHT22;28319;48.116;10.818;2022-08-20T13:00:28;22.40;99.90
41985;DHT22;28319;48.116;10.818;2022-08-20T13:02:57;22.50;99.90
41985;DHT22;28319;48.116;10.818;2022-08-20T13:05:25;22.50;99.90
41985;DHT22;28319;48.116;10.818;2022-08-20T13:07:52;22.30;99.90
41985;DHT22;28319;48.116;10.818;2022-08-20T13:10:23;22.10;99.90
41985;DHT22;28319;48.116;10.818;2022-08-20T13:12:50;21.80;99.90
41985;DHT22;28319;48.116;10.818;2022-08-20T13:15:18;21.40;99.90
41985;DHT22;28319;48.116;10.818;2022-08-20T13:17:48;21.20;99.90
41985;DHT22;28319;48.116;10.818;2022-08-20T13:20:15;21.10;99.90
41985;DHT22;28319;48.116;10.818;2022-08-20T13:22:43;21.10;99.90
41985;DHT22;28319;48.116;10.818;2022-08-20T13:25:11;21.10;99.90
41985;DHT22;28319;48.116;10.818;2022-08-20T13:27:42;21.20;99.90
41985;DHT22;28319;48.116;10.818;2022-08-20T13:30:11;21.30;99.90
41985;DHT22;28319;48.116;10.818;2022-08-20T13:32:39;21.30;99.90
41985;DHT22;28319;48.116;10.818;2022-08-20T13:35:07;21.20;99.90
41985;DHT22;28319;48.116;10.818;2022-08-20T13:37:36;21.20;99.90
41985;DHT22;28319;48.116;10.818;2022-08-20T13:40:04;21.10;99.90
41985;DHT22;28319;48.116;10.818;2022-08-20T13:42:32;21.10;99.90
41985;DHT22;28319;48.116;10.818;2022-08-20T13:45:01;21.10;99.90
41985;DHT22;28319;48.116;10.818;2022-08-20T13:47:30;20.90;99.90
41985;DHT22;28319;48.116;10.818;2022-08-20T13:50:00;21.00;99.90
41985;DHT22;28319;48.116;10.818;2022-08-20T13:52:29;21.00;99.90
41985;DHT22;28319;48.116;10.818;2022-08-20T13:54:57;21.10;99.90
41985;DHT22;28319;48.116;10.818;2022-08-20T13:57:25;21.20;99.90
41985;DHT22;28319;48.116;10.818;2022-08-20T13:59:54;21.30;99.90
41985;DHT22;28319;48.116;10.818;2022-08-20T14:02:23;21.30;99.90
41985;DHT22;28319;48.116;10.818;2022-08-20T14:04:51;21.40;99.90
41985;DHT22;28319;48.116;10.818;2022-08-20T14:07:19;21.40;99.90
41985;DHT22;28319;48.116;10.818;2022-08-20T14:09:49;21.40;99.90
41985;DHT22;28319;48.116;10.818;2022-08-20T14:12:18;21.50;99.90
41985;DHT22;28319;48.116;10.818;2022-08-20T14:14:47;21.40;99.90
41985;DHT22;28319;48.116;10.818;2022-08-20T14:17:16;21.40;99.90
41985;DHT22;28319;48.116;10.818;2022-08-20T14:19:46;21.60;99.90
41985;DHT22;28319;48.116;10.818;2022-08-20T14:22:14;21.50;99.90
41985;DHT22;28319;48.116;10.818;2022-08-20T14:24:42;21.60;99.90
41985;DHT22;28319;48.116;10.818;2022-08-20T14:27:12;21.50;99.90
41985;DHT22;28319;48.116;10.818;2022-08-20T14:29:40;21.40;99.90
41985;DHT22;28319;48.116;10.818;2022-08-20T14:32:08;21.30;99.90
41985;DHT22;28319;48.116;10.818;2022-08-20T14:34:36;21.30;99.90
41985;DHT22;28319;48.116;10.818;2022-08-20T14:37:14;21.20;99.90
41985;DHT22;28319;48.116;10.818;2022-08-20T14:39:44;21.10;99.90
41985;DHT22;28319;48.116;10.818;2022-08-20T14:42:11;20.90;99.90
41985;DHT22;28319;48.116;10.818;2022-08-20T14:44:38;20.90;99.90
41985;DHT22;28319;48.116;10.818;2022-08-20T14:47:10;21.00;99.90
41985;DHT22;28319;48.116;10.818;2022-08-20T14:49:38;20.90;99.90
41985;DHT22;28319;48.116;10.818;2022-08-20T14:52:05;20.80;99.90
41985;DHT22;28319;48.116;10.818;2022-08-20T14:54:34;20.80;99.90
41985;DHT22;28319;48.116;10.818;2022-08-20T14:57:01;20.70;99.90
41985;DHT22;28319;48.116;10.818;2022-08-20T14:59:28;20.80;99.90
41985;DHT22;28319;48.116;10.818;2022-08-20T15:01:55;20.90;99.90
41985;DHT22;28319;48.116;10.818;2022-08-20T15:04:22;20.80;99.90
41985;DHT22;28319;48.116;10.818;2022-08-20T15:06:49;20.80;99.90
41985;DHT22;28319;48.116;10.818;2022-08-20T15:09:17;20.70;99.90
41985;DHT22;28319;48.116;10.818;2022-08-20T15:11:45;20.90;99.90
41985;DHT22;28319;48.116;10.818;2022-08-20T15:14:12;20.80;99.90
41985;DHT22;28319;48.116;10.818;2022-08-20T15:16:39;20.90;99.90
41985;DHT22;28319;48.116;10.818;2022-08-20T15:19:06;20.90;99.90
41985;DHT22;28319;48.116;10.818;2022-08-20T15:21:33;20.90;99.90
41985;DHT22;28319;48.116;10.818;2022-08-20T15:24:00;20.90;99.90
41985;DHT22;28319;48.116;10.818;2022-08-20T15:26:27;20.80;99.90